EmailTwitter


Observations de surface / Québec / CYQB (71714)

Régions: Québec | Canada | États-Unis | Europe | France | UK | Elsewhere
Station
Affichage
Infos & localisation pour CYQB (71714) | Aide pour décoder les METARs

Observations prises le 2017-04-24 à 16H00 UTC à QUEBEC A, QB (CYQB)

Etat du ciel: quelques nuages.

Température: 2.0 Celsius

Point de rosée: -10.0 Celsius

Humidité relative: 41%

Facteur vent: 0.

Vents: Sud-ouest à 7 km/h ou 4 noeuds.

Pression au niveau moyen de la mer: 102.64 kilopascals.

Calage altimétrique: 102.61 kilopascals ou 30.30 pouces de mercure.

Visibilité horizontale: 30.00 milles terrestres ou 48.00 kilomètres.

Observation METAR:

CYQB 241600Z 24004KT 210V300 30SM FEW040 FEW240 02/M10 A3030 RMK SC1CI1 SC TR

SLP264=